LRTZ - TUZLA

Compiled: 17:54:53 on 20/10/2018

Latest METAR/SPECI Reports

METAR LRTZ 201700Z 35004KT 9999 FEW050 BKN080 15/10 Q1018 BLU BLU=

Previous reports

METAR LRTZ 201600Z 03008KT 9999 SCT040 OVC080 16/10 Q1017 BLU BLU=
METAR LRTZ 201500Z 03008KT 9999 SCT060 BKN100 18/10 Q1017 BLU BLU=
METAR LRTZ 201400Z 06006KT 9999 SCT060 BKN100 18/11 Q1017 BLU BLU=
METAR LRTZ 201300Z 07006KT 9999 FEW040 BKN100 19/10 Q1017 BLU BLU=

Latest TAF report

TAF LRTZ 201700Z 2018/2118 30010KT 9999 BKN080 PROB30 TEMPO 2102/2106 5000 BR=

Valid WARNINGS

No valid warnings for LRTZ